Joplin, MO

4:33 PM CDT on July 25, 2014 (GMT -0500)
Mohaska (KMOJOPLI11) Elev 1010 ft | 37.06 °N, 94.52 °W | Change Station
Active Advisory: Heat Advisory

Current weather conditions updated 27 seconds ago

Clear
Clear
90.7 °F
Feels Like 99 °F
N
5.0
Wind Variable Wind from South
Gusts 12.0 mph

Tomorrow is forecast to be Warmer than today.

Today
High -- | Low -- °F
--% Chance of Precip.
Yesterday
High -- | Low -- °F
Precip. -- in
6:17 AM 8:30 PM
Waning Crescent, 1% visible
Pressure 29.87 in
Visibility 10.0 miles
Clouds Clear
Heat Index 99 °F
Dew Point 73 °F
Humidity 56%
Rainfall 0.00 in
Snow Depth Not available.
UV 8 out of 12
Pollen 6.30 out of 12
Air Quality Not available.
Flu Activity Not available.
METAR KJLN 252053Z 19016KT 10SM CLR 33/21 A2991 RMK AO2 SLP115 T03330206 56015

More Conditions Fewer Conditions

Pressure 29.87 in
Visibility 10.0 miles
Clouds Clear
Heat Index 99 °F
Dew Point 73 °F
Humidity 56%
Rainfall 0.00 in
Snow Depth Not available.
UV 8 out of 12
Pollen 6.30 out of 12
Air Quality Not available.
Flu Activity Not available.
METAR KJLN 252053Z 19016KT 10SM CLR 33/21 A2991 RMK AO2 SLP115 T03330206 56015

More Conditions Fewer Conditions

10-Day Weather Forecast

Almanac

Astronomy

Jul. 25, 2014 Rise Set
Actual Time 6:17 AM CDT 8:30 PM CDT
Civil Twilight 5:47 AM CDT 9:00 PM CDT
Nautical Twilight 5:11 AM CDT 9:35 PM CDT
Astronomical Twilight 4:32 AM CDT 10:14 PM CDT
Moon 5:16 AM CDT 7:29 PM CDT
Length of Visible Light 15h 12m
Length of Day
14h 13m
Tomorrow will be 1m 34s shorter.
Waning Crescent, 1% of the Moon is Illuminated
Today
Waning Crescent
Jul 26
New
Aug 3
First Quarter
Aug 10
Full
Aug 17
Last Quarter

Today's Extremes

State Highs State Lows

Community

WunderPhotos

Upload Photos

1,737,411 photos uploaded!

Nearby

Snow Depth

Station Depth Elevation
No new snow has been reported.

Earthquake Activity

City Distance Mag. Time & Date
No recent earthquake activity has been reported nearby.
Minimum magnitude displayed is 2.5.

Coastal Water Temperatures

Place Temperature
No Stations Reporting

Nearby Weather Stations

Station Location Temp. Heat Index Dew Point Humidity Wind Precip. Elev Updated Type
Mohaska, Joplin, MO 90.7 °F 99 °F 73 °F 56% South  at  5.0 mph 0.00 in / hr 1010 ft 4:32 PM CDT Normal
APRSWXNET Neosho MO , Neosho, MO 91 °F 98 °F 71 °F 52% SSW  at  9 mph 0.00 in / hr 1023 ft 3:37 PM CDT MADIS
South east of Granby, Granby, MO 95.7 °F 97 °F 63 °F 34% East  at  6.9 mph 0.00 in / hr 1217 ft 4:33 PM CDT Rapid Fire
ESE Cherokee Co Kansas, Columbus, KS 93.1 °F 105 °F 76 °F 57% South  at  7.0 mph 0.00 in / hr 951 ft 4:24 PM CDT Normal

Show More Stations Show Fewer Stations